Time;durP1;ratioP1;P1;durP2;ratioP2;P2;SDS_P1;SDS_P2;PMS_P1;PMS_P2;Temp;Humidity;BMP_temperature;BMP_pressure;BME280_temperature;BME280_humidity;BME280_pressure;Samples;Min_cycle;Max_cycle;Signal;HPM_P1;HPM_P2
2021/11/21 00:02:49;;;;;;;5.63;4.80;;;17.80;71.40;;;;;;10544766;28;20023;-47
2021/11/21 00:07:50;;;;;;;6.13;4.18;;;17.70;71.40;;;;;;10579649;28;20467;-50
2021/11/21 00:12:51;;;;;;;5.05;4.40;;;17.60;71.50;;;;;;10561312;28;20042;-51
2021/11/21 00:17:52;;;;;;;5.35;3.63;;;17.60;71.60;;;;;;10579276;28;20023;-49
2021/11/21 00:22:53;;;;;;;4.90;3.78;;;17.60;71.70;;;;;;10561019;28;20031;-47
2021/11/21 00:27:54;;;;;;;5.68;4.03;;;17.60;71.40;;;;;;10561113;28;20030;-48
2021/11/21 00:32:55;;;;;;;5.05;4.22;;;17.60;71.40;;;;;;10578547;28;20061;-49
2021/11/21 00:37:56;;;;;;;4.80;3.95;;;17.60;71.40;;;;;;10579179;28;20024;-51
2021/11/21 00:43:00;;;;;;;4.65;3.22;;;17.60;71.60;;;;;;10560279;28;20051;-49
2021/11/21 00:48:02;;;;;;;4.85;3.90;;;17.50;71.70;;;;;;10577995;28;20110;-49
2021/11/21 00:53:03;;;;;;;5.80;4.25;;;17.60;71.60;;;;;;10560085;28;20019;-48
2021/11/21 00:58:10;;;;;;;4.13;3.28;;;17.60;71.40;;;;;;10560008;28;20032;-50
2021/11/21 01:03:14;;;;;;;6.38;4.05;;;17.70;71.10;;;;;;10577967;28;20024;-48
2021/11/21 01:08:16;;;;;;;3.97;3.10;;;17.80;70.90;;;;;;10559638;28;20478;-48
2021/11/21 01:13:18;;;;;;;4.68;4.10;;;17.70;71.00;;;;;;10577778;28;20140;-51
2021/11/21 01:18:19;;;;;;;6.32;3.90;;;17.70;71.10;;;;;;10559514;28;20106;-48
2021/11/21 01:23:20;;;;;;;5.18;3.58;;;17.70;71.20;;;;;;10577679;28;20023;-48
2021/11/21 01:28:21;;;;;;;4.65;3.95;;;17.70;71.00;;;;;;10577815;28;20039;-48
2021/11/21 01:33:22;;;;;;;4.45;3.63;;;17.70;70.90;;;;;;10545863;28;20040;-48
2021/11/21 01:38:22;;;;;;;4.20;3.47;;;17.70;71.00;;;;;;10577343;28;20445;-48
2021/11/21 01:43:23;;;;;;;4.82;4.20;;;17.70;71.10;;;;;;10577320;28;20028;-50
2021/11/21 01:48:24;;;;;;;3.60;3.25;;;17.70;71.00;;;;;;10577163;28;20063;-49
2021/11/21 01:53:25;;;;;;;4.68;3.78;;;17.70;70.90;;;;;;10577264;28;20474;-47
2021/11/21 01:58:26;;;;;;;4.45;3.97;;;17.70;70.90;;;;;;10577617;28;20093;-49
2021/11/21 02:03:27;;;;;;;4.43;3.55;;;17.60;71.00;;;;;;10564111;28;20036;-52
2021/11/21 02:08:27;;;;;;;3.97;3.35;;;17.60;71.10;;;;;;10584709;28;20039;-47
2021/11/21 02:13:28;;;;;;;4.18;3.60;;;17.70;70.90;;;;;;10566352;28;20020;-47
2021/11/21 02:18:29;;;;;;;5.45;3.90;;;17.70;70.90;;;;;;10584418;28;20058;-48
2021/11/21 02:23:30;;;;;;;6.15;3.65;;;17.70;70.90;;;;;;10583981;28;20027;-48
2021/11/21 02:28:33;;;;;;;3.65;3.28;;;17.60;71.00;;;;;;10583971;28;20410;-47
2021/11/21 02:33:34;;;;;;;3.58;3.17;;;17.70;71.00;;;;;;10565443;28;20507;-48
2021/11/21 02:38:37;;;;;;;4.30;3.35;;;17.70;70.90;;;;;;10583797;28;20041;-51
2021/11/21 02:43:40;;;;;;;3.92;3.42;;;17.60;70.90;;;;;;10583186;28;20028;-52
2021/11/21 02:48:42;;;;;;;4.53;3.28;;;17.60;71.00;;;;;;10583637;28;20129;-47
2021/11/21 02:53:45;;;;;;;3.85;3.20;;;17.70;71.00;;;;;;10582708;28;20040;-47
2021/11/21 02:58:47;;;;;;;4.88;3.85;;;17.70;70.80;;;;;;10564676;28;20077;-52
2021/11/21 03:03:49;;;;;;;4.40;3.10;;;17.70;70.80;;;;;;10561672;28;20059;-51
2021/11/21 03:08:50;;;;;;;4.50;3.75;;;17.70;70.80;;;;;;10564458;28;20039;-52
2021/11/21 03:13:51;;;;;;;4.47;3.63;;;17.70;70.60;;;;;;10581208;28;20083;-49
2021/11/21 03:18:52;;;;;;;4.30;3.45;;;17.70;70.60;;;;;;10563573;28;20051;-47
2021/11/21 03:23:52;;;;;;;3.90;3.30;;;17.70;70.60;;;;;;10563435;28;20027;-48
2021/11/21 03:28:53;;;;;;;4.68;3.85;;;17.60;70.70;;;;;;10563346;28;20042;-48
2021/11/21 03:33:54;;;;;;;3.65;3.22;;;17.60;70.80;;;;;;10581527;28;20134;-48
2021/11/21 03:38:55;;;;;;;4.32;3.10;;;17.70;70.60;;;;;;10580950;28;20027;-47
2021/11/21 03:43:55;;;;;;;4.20;3.42;;;17.70;70.60;;;;;;10580789;28;20027;-52
2021/11/21 03:48:56;;;;;;;4.65;3.75;;;17.60;70.70;;;;;;10565557;28;20394;-49
2021/11/21 03:53:57;;;;;;;4.07;3.60;;;17.60;70.80;;;;;;10580288;28;20035;-52
2021/11/21 03:58:58;;;;;;;3.45;2.95;;;17.70;70.70;;;;;;10580308;28;20106;-50
2021/11/21 04:03:59;;;;;;;3.80;3.20;;;17.70;70.40;;;;;;10558995;28;20515;-50
2021/11/21 04:09:00;;;;;;;4.20;3.40;;;17.80;70.30;;;;;;10579847;28;20028;-52
2021/11/21 04:14:01;;;;;;;3.42;2.95;;;17.80;70.20;;;;;;10579595;28;20028;-48
2021/11/21 04:19:04;;;;;;;3.50;2.85;;;17.70;70.20;;;;;;10579408;28;20028;-48
2021/11/21 04:24:08;;;;;;;3.47;3.17;;;17.70;70.20;;;;;;10579048;28;20050;-49
2021/11/21 04:29:10;;;;;;;3.95;3.20;;;17.80;70.10;;;;;;10561481;28;20036;-47
2021/11/21 04:34:11;;;;;;;4.53;3.88;;;17.80;70.10;;;;;;10565811;28;20047;-48
2021/11/21 04:39:11;;;;;;;4.18;2.85;;;17.70;70.20;;;;;;10579166;28;20035;-49
2021/11/21 04:44:12;;;;;;;3.88;3.03;;;17.80;70.10;;;;;;10578519;28;20479;-48
2021/11/21 04:49:13;;;;;;;4.25;3.15;;;17.80;70.00;;;;;;10560335;28;20034;-48
2021/11/21 04:54:16;;;;;;;4.30;3.58;;;17.80;70.10;;;;;;10560075;28;20038;-47
2021/11/21 04:59:17;;;;;;;3.97;3.20;;;17.80;69.90;;;;;;10578236;28;20579;-48
2021/11/21 05:04:18;;;;;;;4.03;3.33;;;17.80;70.00;;;;;;10557463;28;20032;-49
2021/11/21 05:09:19;;;;;;;4.05;3.05;;;17.70;70.20;;;;;;10543157;28;20514;-48
2021/11/21 05:14:21;;;;;;;4.28;3.25;;;17.70;70.30;;;;;;10559845;28;20031;-49
2021/11/21 05:19:21;;;;;;;3.80;3.20;;;17.60;70.30;;;;;;10560183;28;20024;-48
2021/11/21 05:24:24;;;;;;;3.25;2.83;;;17.70;70.30;;;;;;10559352;28;20046;-47
2021/11/21 05:29:25;;;;;;;3.10;2.72;;;17.70;70.20;;;;;;10577591;28;20479;-48
2021/11/21 05:34:25;;;;;;;3.67;2.80;;;17.70;70.30;;;;;;10574538;28;20067;-48
2021/11/21 05:39:26;;;;;;;3.60;2.78;;;17.60;70.40;;;;;;10567538;28;20024;-48
2021/11/21 05:44:27;;;;;;;3.25;2.53;;;17.70;70.20;;;;;;10585850;28;20122;-46
2021/11/21 05:49:28;;;;;;;3.92;2.92;;;17.90;69.70;;;;;;10567600;28;20466;-46
2021/11/21 05:54:28;;;;;;;3.47;2.55;;;18.10;69.10;;;;;;10583252;28;20036;-47
2021/11/21 05:59:29;;;;;;;3.42;2.45;;;18.30;68.50;;;;;;10566981;28;20099;-47
2021/11/21 06:04:30;;;;;;;2.60;2.30;;;18.30;68.30;;;;;;10547166;28;20055;-48
2021/11/21 06:09:31;;;;;;;3.08;2.30;;;18.40;68.10;;;;;;10584742;28;20061;-47
2021/11/21 06:14:31;;;;;;;3.53;2.28;;;18.40;68.00;;;;;;10566393;28;20028;-48
2021/11/21 06:19:32;;;;;;;3.97;2.33;;;18.50;67.90;;;;;;10565879;28;20422;-48
2021/11/21 06:24:33;;;;;;;4.80;2.88;;;18.50;67.90;;;;;;10584087;28;20028;-45
2021/11/21 06:29:34;;;;;;;2.90;2.15;;;18.60;67.80;;;;;;10561477;28;20089;-47
2021/11/21 06:34:35;;;;;;;5.43;2.58;;;18.70;67.70;;;;;;10574831;28;20052;-48
2021/11/21 06:39:41;;;;;;;3.55;2.78;;;18.90;67.60;;;;;;10565643;28;20177;-48
2021/11/21 06:44:42;;;;;;;3.92;2.10;;;18.90;68.40;;;;;;10580925;28;20031;-47
2021/11/21 06:49:44;;;;;;;3.63;2.35;;;18.90;68.70;;;;;;10545523;28;20073;-49
2021/11/21 06:54:45;;;;;;;7.97;2.65;;;18.90;68.60;;;;;;10581407;28;20034;-46
2021/11/21 06:59:46;;;;;;;5.10;2.90;;;18.80;69.10;;;;;;10564544;28;20058;-48
2021/11/21 07:04:49;;;;;;;5.32;2.67;;;18.80;69.10;;;;;;10580205;28;20118;-48
2021/11/21 07:09:50;;;;;;;6.82;2.42;;;18.80;68.80;;;;;;10561278;28;20481;-45
2021/11/21 07:14:50;;;;;;;9.13;2.88;;;18.70;69.00;;;;;;10577257;28;20049;-46
2021/11/21 07:19:51;;;;;;;3.60;2.28;;;18.60;69.10;;;;;;10558487;28;20039;-48
2021/11/21 07:24:52;;;;;;;5.13;2.78;;;18.70;68.90;;;;;;10576772;28;20035;-48
2021/11/21 07:29:52;;;;;;;5.45;2.47;;;18.80;68.60;;;;;;10579822;28;20028;-46
2021/11/21 07:34:53;;;;;;;2.92;2.00;;;18.80;68.40;;;;;;10581960;28;20066;-48
2021/11/21 07:39:54;;;;;;;6.13;2.80;;;18.80;68.20;;;;;;10582395;28;20051;-48
2021/11/21 07:44:54;;;;;;;11.15;2.92;;;18.80;67.90;;;;;;10582128;28;20538;-54
2021/11/21 07:49:56;;;;;;;4.28;2.20;;;18.80;68.10;;;;;;10563582;28;20028;-54
2021/11/21 07:54:57;;;;;;;3.83;2.03;;;18.70;68.90;;;;;;10561980;28;20054;-49
2021/11/21 07:59:57;;;;;;;6.75;2.88;;;18.80;68.10;;;;;;10572102;28;20055;-47
2021/11/21 08:04:58;;;;;;;11.00;2.88;;;18.90;68.00;;;;;;10579257;28;20136;-47
2021/11/21 08:09:59;;;;;;;7.25;2.85;;;18.80;68.20;;;;;;10580508;28;20051;-47
2021/11/21 08:15:00;;;;;;;9.07;2.70;;;18.70;68.60;;;;;;10561576;28;20028;-48
2021/11/21 08:20:04;;;;;;;6.50;2.75;;;18.50;68.80;;;;;;10580454;28;20035;-49
2021/11/21 08:25:06;;;;;;;10.60;2.15;;;18.50;69.10;;;;;;10577163;28;20035;-50
2021/11/21 08:30:09;;;;;;;7.50;2.42;;;18.60;68.80;;;;;;10559245;28;20390;-48
2021/11/21 08:35:11;;;;;;;5.40;2.58;;;18.50;68.80;;;;;;10577180;28;20052;-48
2021/11/21 08:40:12;;;;;;;5.80;2.05;;;18.50;68.90;;;;;;10580165;28;20034;-48
2021/11/21 08:45:13;;;;;;;4.05;2.05;;;18.60;69.20;;;;;;10579752;28;20058;-48
2021/11/21 08:50:13;;;;;;;5.63;2.50;;;18.60;68.50;;;;;;10579723;28;20049;-47
2021/11/21 08:55:15;;;;;;;4.10;2.08;;;18.60;68.70;;;;;;10579591;28;20534;-47
2021/11/21 09:00:17;;;;;;;3.42;1.65;;;18.50;69.00;;;;;;10561256;28;20131;-48
2021/11/21 09:05:18;;;;;;;4.38;1.77;;;18.60;68.70;;;;;;10560964;28;20039;-47
2021/11/21 09:10:21;;;;;;;3.85;1.90;;;18.50;68.80;;;;;;10560510;28;20024;-50
2021/11/21 09:15:22;;;;;;;5.47;2.33;;;18.40;69.00;;;;;;10578996;28;20042;-52
2021/11/21 09:20:23;;;;;;;4.60;2.03;;;18.30;69.40;;;;;;10578678;28;20020;-52
2021/11/21 09:25:25;;;;;;;6.10;1.73;;;18.30;69.30;;;;;;10578963;28;20424;-48
2021/11/21 09:30:26;;;;;;;7.07;2.00;;;18.30;69.10;;;;;;10577402;28;20024;-52
2021/11/21 09:35:27;;;;;;;7.30;2.03;;;18.40;69.30;;;;;;10558747;28;20475;-50
2021/11/21 09:40:27;;;;;;;4.78;1.75;;;18.40;68.70;;;;;;10579178;28;20039;-46
2021/11/21 09:45:29;;;;;;;6.72;2.53;;;18.50;68.50;;;;;;10557665;28;20030;-46
2021/11/21 09:50:33;;;;;;;3.92;1.90;;;18.60;68.20;;;;;;10559854;28;20032;-46
2021/11/21 09:55:34;;;;;;;3.60;1.80;;;18.60;68.10;;;;;;10575220;28;20089;-47
2021/11/21 10:00:35;;;;;;;4.03;2.00;;;18.60;68.40;;;;;;10540133;28;20015;-49
2021/11/21 10:05:43;;;;;;;4.18;1.58;;;18.50;68.60;;;;;;10575065;28;20034;-51
2021/11/21 10:10:47;;;;;;;5.45;1.95;;;18.40;68.80;;;;;;10577871;28;20032;-51
2021/11/21 10:15:48;;;;;;;4.53;2.58;;;18.50;68.60;;;;;;10577829;28;20031;-49
2021/11/21 10:20:49;;;;;;;4.15;1.80;;;18.50;68.60;;;;;;10562471;28;20028;-50
2021/11/21 10:25:53;;;;;;;6.82;1.92;;;18.40;68.60;;;;;;10549967;28;20494;-51
2021/11/21 10:31:03;;;;;;;7.03;1.90;;;18.50;68.40;;;;;;10585463;28;20069;-47
2021/11/21 10:36:22;;;;;;;3.72;1.98;;;18.50;68.20;;;;;;10584594;28;20490;-46
2021/11/21 10:41:29;;;;;;;6.00;1.80;;;18.50;68.30;;;;;;10585013;28;20023;-51
2021/11/21 10:46:46;;;;;;;3.38;1.80;;;18.40;68.50;;;;;;10584325;28;20114;-51
2021/11/21 10:51:57;;;;;;;4.28;1.85;;;18.40;68.80;;;;;;10549293;28;20031;-47
2021/11/21 10:57:03;;;;;;;3.60;1.70;;;18.40;69.10;;;;;;10584199;28;20396;-50
2021/11/21 11:02:10;;;;;;;4.28;2.25;;;18.30;69.60;;;;;;10566213;28;20403;-52
2021/11/21 11:07:17;;;;;;;4.22;1.63;;;18.30;70.10;;;;;;10581758;28;20379;-51
2021/11/21 11:12:19;;;;;;;3.20;1.52;;;18.30;70.20;;;;;;10565484;28;20400;-48
2021/11/21 11:17:20;;;;;;;3.83;1.70;;;18.30;70.10;;;;;;10565437;28;20028;-51
2021/11/21 11:22:20;;;;;;;2.85;1.55;;;18.20;70.20;;;;;;10583052;28;20037;-46
2021/11/21 11:27:55;;;;;;;3.63;1.83;;;18.20;71.00;;;;;;10583362;28;20039;-47
2021/11/21 11:33:14;;;;;;;4.15;1.63;;;18.30;70.30;;;;;;10582013;28;20024;-52
2021/11/21 11:38:16;;;;;;;3.58;1.88;;;18.20;70.20;;;;;;10564945;28;20035;-49
2021/11/21 11:43:20;;;;;;;5.25;1.42;;;18.30;70.10;;;;;;10582422;28;20036;-46
2021/11/21 11:48:45;;;;;;;3.33;1.48;;;18.30;70.20;;;;;;10582606;28;20347;-51
2021/11/21 11:53:53;;;;;;;3.75;1.55;;;18.30;70.30;;;;;;10582043;28;20036;-48
2021/11/21 11:59:08;;;;;;;3.83;1.35;;;18.20;70.40;;;;;;10581689;28;20114;-48
2021/11/21 12:04:12;;;;;;;3.42;1.35;;;18.20;70.50;;;;;;10579340;28;20035;-46
2021/11/21 12:09:15;;;;;;;3.15;1.23;;;18.20;70.50;;;;;;10581316;28;20063;-46
2021/11/21 12:14:39;;;;;;;3.47;1.15;;;18.10;70.60;;;;;;10581291;28;20761;-47
2021/11/21 12:19:47;;;;;;;3.05;1.20;;;18.10;70.70;;;;;;10581265;28;20081;-46
2021/11/21 12:24:49;;;;;;;2.33;1.38;;;18.00;70.80;;;;;;10563574;28;20114;-46
2021/11/21 12:30:07;;;;;;;2.15;1.30;;;18.00;70.80;;;;;;10580551;28;20375;-46
2021/11/21 12:35:37;;;;;;;2.03;1.10;;;17.90;71.00;;;;;;10578315;28;20043;-46
2021/11/21 12:40:46;;;;;;;3.83;1.47;;;17.90;71.10;;;;;;10560003;28;20028;-48
2021/11/21 12:45:51;;;;;;;1.85;0.90;;;17.80;71.10;;;;;;10561451;28;20046;-47
2021/11/21 12:51:02;;;;;;;3.33;1.17;;;17.80;71.20;;;;;;10544674;28;20031;-46
2021/11/21 12:56:12;;;;;;;3.00;1.10;;;17.80;71.30;;;;;;10561589;28;20027;-47
2021/11/21 13:01:17;;;;;;;3.58;1.50;;;17.80;71.40;;;;;;10579685;28;20054;-48
2021/11/21 13:06:19;;;;;;;2.45;1.23;;;17.70;74.60;;;;;;10579458;28;20042;-46
2021/11/21 13:11:23;;;;;;;1.60;0.70;;;17.80;74.90;;;;;;10579398;28;20555;-46
2021/11/21 13:16:31;;;;;;;3.42;1.38;;;17.80;75.10;;;;;;10561061;28;20398;-47
2021/11/21 13:21:34;;;;;;;3.58;1.10;;;17.80;74.90;;;;;;10561247;28;20026;-47
2021/11/21 13:26:35;;;;;;;2.35;1.00;;;17.80;74.80;;;;;;10578942;28;20475;-47
2021/11/21 13:31:40;;;;;;;2.92;1.00;;;17.80;74.00;;;;;;10565394;28;20115;-51
2021/11/21 13:36:47;;;;;;;2.85;1.20;;;17.80;73.80;;;;;;10578631;28;20046;-47
2021/11/21 13:42:12;;;;;;;2.45;1.05;;;17.80;73.80;;;;;;10560587;28;20027;-47
2021/11/21 13:47:27;;;;;;;2.08;1.10;;;17.80;73.90;;;;;;10560231;28;20046;-50
2021/11/21 13:52:31;;;;;;;2.00;1.30;;;17.80;72.90;;;;;;10560867;28;20039;-49
2021/11/21 13:57:39;;;;;;;2.45;1.20;;;17.90;72.70;;;;;;10583925;28;20027;-47
2021/11/21 14:02:46;;;;;;;1.27;0.75;;;17.90;72.50;;;;;;10586441;28;20030;-46
2021/11/21 14:08:06;;;;;;;2.88;1.08;;;18.00;72.00;;;;;;10583817;28;20050;-50
2021/11/21 14:13:12;;;;;;;3.70;0.93;;;18.10;71.80;;;;;;10586246;28;20034;-48
2021/11/21 14:18:14;;;;;;;3.78;1.10;;;18.10;71.80;;;;;;10568388;28;20535;-50
2021/11/21 14:23:28;;;;;;;1.65;0.93;;;18.00;71.80;;;;;;10585498;28;20034;-46
2021/11/21 14:28:43;;;;;;;1.45;0.77;;;18.10;71.60;;;;;;10585575;28;20329;-46
2021/11/21 14:33:47;;;;;;;2.53;0.93;;;18.10;71.50;;;;;;10553658;28;20088;-47
2021/11/21 14:39:07;;;;;;;3.67;1.00;;;18.20;71.40;;;;;;10584489;28;20034;-45
2021/11/21 14:44:12;;;;;;;;;;;18.20;71.20;;;;;;10566084;28;20032;-49
2021/11/21 14:49:12;;;;;;;2.70;1.35;;;18.10;71.10;;;;;;10583282;28;19915;-47
2021/11/21 14:54:18;;;;;;;2.25;1.05;;;18.20;71.20;;;;;;10565448;28;20035;-48
2021/11/21 14:59:19;;;;;;;3.35;1.00;;;18.20;71.10;;;;;;10583649;28;20356;-47
2021/11/21 15:04:19;;;;;;;1.67;0.95;;;18.20;71.00;;;;;;10564389;28;20110;-51
2021/11/21 15:09:20;;;;;;;1.50;0.65;;;18.30;70.70;;;;;;10582404;28;20024;-48
2021/11/21 15:14:21;;;;;;;1.67;0.85;;;18.30;70.40;;;;;;10583466;28;20115;-47
2021/11/21 15:19:21;;;;;;;1.20;0.63;;;18.30;70.50;;;;;;10583558;28;20015;-50
2021/11/21 15:24:22;;;;;;;1.98;0.80;;;18.20;70.70;;;;;;10582983;28;20043;-51
2021/11/21 15:29:23;;;;;;;1.55;0.50;;;18.20;70.70;;;;;;10582749;28;20028;-49
2021/11/21 15:34:24;;;;;;;3.05;1.13;;;18.20;70.40;;;;;;10564509;28;20046;-48
2021/11/21 15:39:24;;;;;;;1.85;1.20;;;18.20;70.50;;;;;;10564148;28;20106;-51
2021/11/21 15:44:25;;;;;;;1.80;0.80;;;18.20;70.70;;;;;;10582354;28;20032;-48
2021/11/21 15:49:26;;;;;;;1.45;0.60;;;18.20;70.40;;;;;;10563649;28;20463;-47
2021/11/21 15:54:27;;;;;;;1.02;0.80;;;18.20;70.30;;;;;;10581728;28;20035;-46
2021/11/21 15:59:28;;;;;;;1.52;0.70;;;18.30;70.00;;;;;;10581773;28;20395;-47
2021/11/21 16:04:29;;;;;;;1.17;0.85;;;18.40;69.80;;;;;;10578597;28;20019;-48
2021/11/21 16:09:30;;;;;;;3.20;0.70;;;18.30;69.90;;;;;;10546556;28;20066;-51
2021/11/21 16:14:31;;;;;;;1.45;0.65;;;18.30;70.00;;;;;;10581202;28;20034;-51
2021/11/21 16:19:31;;;;;;;1.40;0.50;;;18.30;70.10;;;;;;10580198;28;20113;-49
2021/11/21 16:24:32;;;;;;;1.38;0.70;;;18.30;69.80;;;;;;10561205;28;20023;-48
2021/11/21 16:29:33;;;;;;;1.45;0.52;;;18.30;69.90;;;;;;10561480;28;20023;-47
2021/11/21 16:34:35;;;;;;;1.10;0.63;;;18.30;69.80;;;;;;10577592;28;20084;-48
2021/11/21 16:39:39;;;;;;;1.23;0.50;;;18.40;69.40;;;;;;10579155;28;20027;-47
2021/11/21 16:44:41;;;;;;;1.25;0.40;;;18.40;69.80;;;;;;10560869;28;20032;-55
2021/11/21 16:49:42;;;;;;;1.23;0.60;;;18.40;69.30;;;;;;10560763;28;20084;-55
2021/11/21 16:54:43;;;;;;;1.48;0.57;;;18.30;69.50;;;;;;10560490;28;20075;-53
2021/11/21 16:59:44;;;;;;;1.00;0.52;;;18.30;69.40;;;;;;10578792;28;20080;-55
2021/11/21 17:04:45;;;;;;;1.70;0.75;;;18.40;69.40;;;;;;10578616;28;20028;-55
2021/11/21 17:09:45;;;;;;;1.80;0.47;;;18.30;69.40;;;;;;10577873;28;20055;-55
2021/11/21 17:14:46;;;;;;;1.27;0.70;;;18.30;69.40;;;;;;10559992;28;20132;-55
2021/11/21 17:19:48;;;;;;;2.28;0.70;;;18.30;69.20;;;;;;10577792;28;20031;-55
2021/11/21 17:24:55;;;;;;;1.10;0.38;;;18.40;69.20;;;;;;10550635;28;20027;-54
2021/11/21 17:29:57;;;;;;;1.02;0.47;;;18.40;68.90;;;;;;10572226;28;20027;-56
2021/11/21 17:34:59;;;;;;;1.38;0.55;;;18.40;68.90;;;;;;10579488;28;20043;-55
2021/11/21 17:39:59;;;;;;;1.52;0.70;;;18.30;69.10;;;;;;10550996;28;20027;-53
2021/11/21 17:45:00;;;;;;;3.03;0.90;;;18.30;69.20;;;;;;10567725;28;20031;-54
2021/11/21 17:50:02;;;;;;;1.52;0.65;;;18.40;69.00;;;;;;10585645;28;20602;-54
2021/11/21 17:55:04;;;;;;;0.98;0.70;;;18.40;68.90;;;;;;10585958;28;20468;-55
2021/11/21 18:00:07;;;;;;;1.20;0.47;;;18.40;68.90;;;;;;10585300;28;20037;-56
2021/11/21 18:05:09;;;;;;;1.27;0.63;;;18.40;68.90;;;;;;10585150;28;20035;-54
2021/11/21 18:10:14;;;;;;;2.05;0.93;;;18.40;68.70;;;;;;10584856;28;20038;-54
2021/11/21 18:15:15;;;;;;;1.38;0.55;;;18.40;68.70;;;;;;10585123;28;20027;-56
2021/11/21 18:20:17;;;;;;;0.70;0.40;;;18.40;68.80;;;;;;10556065;28;20190;-56
2021/11/21 18:25:18;;;;;;;1.35;0.60;;;18.40;68.80;;;;;;10566933;28;20089;-56
2021/11/21 18:30:18;;;;;;;1.55;0.57;;;18.40;68.40;;;;;;10567345;28;20076;-56
2021/11/21 18:35:19;;;;;;;4.03;0.90;;;18.30;68.40;;;;;;10585378;28;20050;-56
2021/11/21 18:40:20;;;;;;;1.35;0.60;;;18.40;68.20;;;;;;10585217;28;20041;-55
2021/11/21 18:45:21;;;;;;;1.45;0.60;;;18.40;68.30;;;;;;10583694;28;20046;-55
2021/11/21 18:50:22;;;;;;;3.40;0.60;;;18.30;68.30;;;;;;10584071;28;20024;-59
2021/11/21 18:55:30;;;;;;;2.47;0.60;;;18.40;68.40;;;;;;10584362;28;20030;-56
2021/11/21 19:00:33;;;;;;;3.13;0.60;;;18.30;68.40;;;;;;10566218;28;20027;-56
2021/11/21 19:05:33;;;;;;;2.22;0.60;;;18.30;68.60;;;;;;10583240;28;20066;-54
2021/11/21 19:10:34;;;;;;;2.28;0.60;;;18.30;68.30;;;;;;10581161;28;20333;-54
2021/11/21 19:15:35;;;;;;;3.88;1.00;;;18.40;68.40;;;;;;10583443;28;20037;-56
2021/11/21 19:20:37;;;;;;;5.40;2.00;;;18.40;68.30;;;;;;10583563;28;20064;-55
2021/11/21 19:25:38;;;;;;;1.75;0.80;;;18.40;68.80;;;;;;10565572;28;20047;-56
2021/11/21 19:30:39;;;;;;;2.25;1.02;;;18.50;68.50;;;;;;10573430;28;20020;-56
2021/11/21 19:35:39;;;;;;;4.13;1.30;;;18.60;68.50;;;;;;10582157;28;20040;-54
2021/11/21 19:40:40;;;;;;;1.92;0.88;;;18.50;68.50;;;;;;10572366;28;20490;-55
2021/11/21 19:45:41;;;;;;;3.08;1.20;;;18.50;68.80;;;;;;10558694;28;20137;-56
2021/11/21 19:50:42;;;;;;;2.75;1.17;;;18.40;69.00;;;;;;10560925;28;20019;-56
2021/11/21 19:55:43;;;;;;;3.03;1.27;;;18.30;69.40;;;;;;10550101;28;20078;-56
2021/11/21 20:00:43;;;;;;;5.32;1.75;;;18.30;69.40;;;;;;10554926;28;20048;-56
2021/11/21 20:05:44;;;;;;;4.07;1.15;;;18.30;69.30;;;;;;10556404;28;20100;-55
2021/11/21 20:10:45;;;;;;;2.75;1.10;;;18.30;69.40;;;;;;10559987;28;20024;-56
2021/11/21 20:15:45;;;;;;;5.13;1.25;;;18.20;69.70;;;;;;10565972;28;20421;-56
2021/11/21 20:20:47;;;;;;;7.15;1.33;;;18.10;70.00;;;;;;10561939;28;20513;-56
2021/11/21 20:25:49;;;;;;;5.85;1.42;;;18.10;70.00;;;;;;10581480;28;20472;-56
2021/11/21 20:30:56;;;;;;;3.55;0.77;;;18.00;70.10;;;;;;10567270;28;20028;-55
2021/11/21 20:35:56;;;;;;;2.55;0.93;;;17.90;70.30;;;;;;10562175;28;20052;-56
2021/11/21 20:40:57;;;;;;;4.05;1.42;;;17.90;70.40;;;;;;10580235;28;20053;-56
2021/11/21 20:45:58;;;;;;;2.95;1.35;;;17.80;70.60;;;;;;10578064;28;20125;-55
2021/11/21 20:50:59;;;;;;;3.58;1.08;;;17.70;70.60;;;;;;10578049;28;20028;-55
2021/11/21 20:55:59;;;;;;;2.47;0.70;;;17.70;70.70;;;;;;10575048;28;20047;-55
2021/11/21 21:01:00;;;;;;;2.83;1.10;;;17.70;70.80;;;;;;10574873;28;20160;-55
2021/11/21 21:06:06;;;;;;;2.30;1.20;;;17.60;70.80;;;;;;10556338;28;20355;-56
2021/11/21 21:11:06;;;;;;;4.63;0.95;;;17.60;70.80;;;;;;10560469;28;20495;-56
2021/11/21 21:16:07;;;;;;;3.30;0.88;;;17.50;70.90;;;;;;10578142;28;20081;-56
2021/11/21 21:21:09;;;;;;;1.77;0.85;;;17.50;70.90;;;;;;10577632;28;20042;-56
2021/11/21 21:26:11;;;;;;;3.67;0.93;;;17.40;71.00;;;;;;10577495;28;20391;-56
2021/11/21 21:31:11;;;;;;;4.82;0.90;;;17.40;71.00;;;;;;10528740;28;20076;-56
2021/11/21 21:36:12;;;;;;;0.80;0.47;;;17.40;71.10;;;;;;10577244;28;20421;-56
2021/11/21 21:41:15;;;;;;;1.67;0.90;;;17.30;71.00;;;;;;10557975;28;20056;-56
2021/11/21 21:46:16;;;;;;;1.95;0.93;;;17.40;71.10;;;;;;10577386;28;20387;-55
2021/11/21 21:51:17;;;;;;;1.63;0.70;;;17.40;70.90;;;;;;10577260;28;20045;-57
2021/11/21 21:56:18;;;;;;;4.07;1.25;;;17.40;70.80;;;;;;10558884;28;20020;-56
2021/11/21 22:01:19;;;;;;;3.08;0.95;;;17.40;70.60;;;;;;10558878;28;20742;-55
2021/11/21 22:06:21;;;;;;;2.38;0.77;;;17.50;70.30;;;;;;10573332;28;20036;-56
2021/11/21 22:11:23;;;;;;;2.13;1.08;;;17.50;70.20;;;;;;10576856;28;20417;-57
2021/11/21 22:16:24;;;;;;;11.27;0.90;;;17.50;70.10;;;;;;10560939;28;20028;-57
2021/11/21 22:21:24;;;;;;;2.75;0.70;;;17.60;70.00;;;;;;10584446;28;20016;-57
2021/11/21 22:26:26;;;;;;;2.30;0.70;;;17.60;70.00;;;;;;10566167;28;20562;-55
2021/11/21 22:31:27;;;;;;;1.45;0.57;;;17.50;70.00;;;;;;10570473;28;20135;-56
2021/11/21 22:36:27;;;;;;;2.60;0.98;;;17.60;69.70;;;;;;10565353;28;20040;-53
2021/11/21 22:41:28;;;;;;;1.88;0.60;;;17.60;69.70;;;;;;10548488;28;20157;-54
2021/11/21 22:46:29;;;;;;;1.08;0.60;;;17.60;69.70;;;;;;10583470;28;20035;-57
2021/11/21 22:51:29;;;;;;;1.70;0.70;;;17.60;69.70;;;;;;10583767;28;20027;-56
2021/11/21 22:56:30;;;;;;;1.30;0.70;;;17.70;69.40;;;;;;10547819;28;20554;-56
2021/11/21 23:01:31;;;;;;;1.90;0.60;;;17.70;69.30;;;;;;10565022;28;20028;-57
2021/11/21 23:06:32;;;;;;;0.73;0.45;;;17.70;69.10;;;;;;10580353;28;20108;-56
2021/11/21 23:11:32;;;;;;;1.67;0.88;;;17.70;69.10;;;;;;10564332;28;20031;-56
2021/11/21 23:16:33;;;;;;;0.65;0.45;;;17.80;69.00;;;;;;10563997;28;20539;-54
2021/11/21 23:21:36;;;;;;;1.70;0.60;;;17.80;69.40;;;;;;10564213;28;20364;-57
2021/11/21 23:26:36;;;;;;;2.08;0.60;;;17.70;68.90;;;;;;10581340;28;20042;-56
2021/11/21 23:31:37;;;;;;;1.75;0.63;;;17.70;69.00;;;;;;10563188;28;20102;-55
2021/11/21 23:36:39;;;;;;;0.30;0.30;;;17.60;69.20;;;;;;10563052;28;20088;-56
2021/11/21 23:41:39;;;;;;;1.33;0.70;;;17.60;69.30;;;;;;10581456;28;20024;-55
2021/11/21 23:46:40;;;;;;;0.60;0.50;;;17.70;69.10;;;;;;10581546;28;20031;-57
2021/11/21 23:51:41;;;;;;;0.88;0.47;;;17.70;69.10;;;;;;10580987;28;20387;-55
2021/11/21 23:56:41;;;;;;;0.93;0.32;;;17.70;68.70;;;;;;10580723;28;20034;-56
